createdAt,value
2023-03-16T00:00:17.051Z,9.418221
2023-03-16T00:01:17.065Z,9.418432
2023-03-16T00:02:17.114Z,9.418191
2023-03-16T00:03:17.056Z,9.418318
2023-03-16T00:04:17.027Z,9.418340
2023-03-16T00:05:17.027Z,9.418406
2023-03-16T00:06:17.009Z,9.418506
2023-03-16T00:07:17.022Z,9.418324
2023-03-16T00:08:16.989Z,9.418244
2023-03-16T00:09:16.993Z,9.418319
2023-03-16T00:10:17.004Z,9.418426
2023-03-16T00:11:16.980Z,9.418324
2023-03-16T00:12:17.252Z,9.418425
2023-03-16T00:13:16.957Z,9.418268
2023-03-16T00:14:16.968Z,9.418356
2023-03-16T00:15:16.959Z,9.418323
2023-03-16T00:16:17.081Z,9.418308
2023-03-16T00:17:16.965Z,9.418275
2023-03-16T00:18:16.942Z,9.418285
2023-03-16T00:19:16.935Z,9.418314
2023-03-16T00:20:16.929Z,9.418210
2023-03-16T00:21:16.941Z,9.418260
2023-03-16T00:22:16.904Z,9.418298
2023-03-16T00:23:16.898Z,9.418261
2023-03-16T00:24:16.904Z,9.418283
2023-03-16T00:25:16.891Z,9.418248
2023-03-16T00:26:16.915Z,9.418308
2023-03-16T00:27:16.872Z,9.418235
2023-03-16T00:28:17.872Z,9.418200
2023-03-16T00:29:16.861Z,9.418258
2023-03-16T00:30:16.862Z,9.418268
2023-03-16T00:31:16.901Z,9.418293
2023-03-16T00:32:16.877Z,9.418344
2023-03-16T00:33:16.833Z,9.418346
2023-03-16T00:34:16.842Z,9.418342
2023-03-16T00:35:16.820Z,9.418315
2023-03-16T00:36:16.811Z,9.418344
2023-03-16T00:37:16.933Z,9.418338
2023-03-16T00:38:16.821Z,9.418366
2023-03-16T00:39:16.791Z,9.418196
2023-03-16T00:40:16.789Z,9.418220
2023-03-16T00:41:16.781Z,9.418324
2023-03-16T00:42:16.787Z,9.418396
2023-03-16T00:43:16.787Z,9.418286
2023-03-16T00:44:16.759Z,9.418242
2023-03-16T00:45:16.753Z,9.418398
2023-03-16T00:46:16.834Z,9.418369
2023-03-16T00:47:16.754Z,9.418373
2023-03-16T00:48:16.743Z,9.418441
2023-03-16T00:49:16.734Z,9.418439
2023-03-16T00:50:16.737Z,9.418419
2023-03-16T00:51:16.739Z,9.418356
2023-03-16T00:52:16.705Z,9.418343
2023-03-16T00:53:16.710Z,9.418294
2023-03-16T00:54:16.712Z,9.418243
2023-03-16T00:55:16.689Z,9.418291
2023-03-16T00:56:16.693Z,9.418311
2023-03-16T00:57:16.676Z,9.418332
2023-03-16T00:58:16.684Z,9.418398
2023-03-16T00:59:16.670Z,9.418414
2023-03-16T01:00:16.659Z,9.418372
2023-03-16T01:01:16.739Z,9.418322
2023-03-16T01:02:16.660Z,9.418390
2023-03-16T01:03:16.679Z,9.418296
2023-03-16T01:04:16.622Z,9.418446
2023-03-16T01:05:16.623Z,9.418344
2023-03-16T01:06:16.611Z,9.418337
2023-03-16T01:07:16.619Z,9.418456
2023-03-16T01:08:16.588Z,9.418381
2023-03-16T01:09:16.603Z,9.418366
2023-03-16T01:10:16.627Z,9.418333
2023-03-16T01:11:16.616Z,9.418237
2023-03-16T01:12:16.578Z,9.418258
2023-03-16T01:13:16.593Z,9.418292
2023-03-16T01:14:16.554Z,9.418300
2023-03-16T01:15:16.581Z,9.418386
2023-03-16T01:16:16.607Z,9.418312
2023-03-16T01:17:16.541Z,9.418292
2023-03-16T01:18:16.538Z,9.418308
2023-03-16T01:19:16.535Z,9.418278
2023-03-16T01:20:16.553Z,9.418270
2023-03-16T01:21:16.517Z,9.418386
2023-03-16T01:22:16.509Z,9.418370
2023-03-16T01:23:16.508Z,9.418343
2023-03-16T01:24:16.504Z,9.418397
2023-03-16T01:25:16.496Z,9.418357
2023-03-16T01:26:16.509Z,9.418376
2023-03-16T01:27:16.473Z,9.418323
2023-03-16T01:28:16.469Z,9.418258
2023-03-16T01:29:16.468Z,9.418224
2023-03-16T01:30:16.472Z,9.418209
2023-03-16T01:31:16.551Z,9.418307
2023-03-16T01:32:16.448Z,9.418232
2023-03-16T01:33:16.432Z,9.418310
2023-03-16T01:34:16.465Z,9.418302
2023-03-16T01:35:16.422Z,9.418279
2023-03-16T01:36:16.419Z,9.418300
2023-03-16T01:37:16.425Z,9.418278
2023-03-16T01:38:16.399Z,9.418261
2023-03-16T01:39:16.421Z,9.418305
2023-03-16T01:40:16.397Z,9.418265
2023-03-16T01:41:16.401Z,9.418215
2023-03-16T01:42:16.377Z,9.418316
2023-03-16T01:43:16.369Z,9.418301
2023-03-16T01:44:16.393Z,9.418281
2023-03-16T01:45:16.356Z,9.418239
2023-03-16T01:46:16.357Z,9.418329
2023-03-16T01:47:16.338Z,9.418337
2023-03-16T01:48:16.339Z,9.418287
2023-03-16T01:49:16.332Z,9.418303
2023-03-16T01:50:16.348Z,9.418349
2023-03-16T01:51:16.318Z,9.418320
2023-03-16T01:52:16.307Z,9.418372
2023-03-16T01:53:16.304Z,9.418214
2023-03-16T01:54:16.314Z,9.418226
2023-03-16T01:55:16.334Z,9.418190
2023-03-16T01:56:16.281Z,9.418133
2023-03-16T01:57:16.276Z,9.418137
2023-03-16T01:58:16.266Z,9.418132
2023-03-16T01:59:16.273Z,9.418154
2023-03-16T02:00:16.253Z,9.418309
2023-03-16T02:01:16.281Z,9.418087
2023-03-16T02:02:16.240Z,9.418090
2023-03-16T02:03:16.241Z,9.418223
2023-03-16T02:04:16.277Z,9.418175
2023-03-16T02:05:16.217Z,9.418304
2023-03-16T02:06:16.227Z,9.418489
2023-03-16T02:07:16.220Z,9.418311
2023-03-16T02:08:16.200Z,9.418414
2023-03-16T02:09:16.199Z,9.418381
2023-03-16T02:10:16.196Z,9.418487
2023-03-16T02:11:16.220Z,9.418452
2023-03-16T02:12:16.177Z,9.418510
2023-03-16T02:13:16.165Z,9.418175
2023-03-16T02:14:16.178Z,9.418205
2023-03-16T02:15:16.154Z,9.418191
2023-03-16T02:16:16.181Z,9.418192
2023-03-16T02:17:16.149Z,9.418184
2023-03-16T02:18:16.149Z,9.418365
2023-03-16T02:19:16.132Z,9.418299
2023-03-16T02:20:16.124Z,9.418259
2023-03-16T02:21:16.129Z,9.418164
2023-03-16T02:22:16.134Z,9.418158
2023-03-16T02:23:16.106Z,9.418266
2023-03-16T02:24:16.108Z,9.418257
2023-03-16T02:25:16.099Z,9.418262
2023-03-16T02:26:16.092Z,9.418187
2023-03-16T02:27:16.100Z,9.418228
2023-03-16T02:28:16.080Z,9.418244
2023-03-16T02:29:16.086Z,9.418154
2023-03-16T02:30:16.091Z,9.418233
2023-03-16T02:31:16.127Z,9.418362
2023-03-16T02:32:16.061Z,9.418477
2023-03-16T02:33:16.087Z,9.418518
2023-03-16T02:34:16.057Z,9.418432
2023-03-16T02:35:16.046Z,9.418450
2023-03-16T02:36:16.026Z,9.418374
2023-03-16T02:37:16.020Z,9.418357
2023-03-16T02:38:16.027Z,9.418288
2023-03-16T02:39:16.047Z,9.418276
2023-03-16T02:40:16.012Z,9.418261
2023-03-16T02:41:15.993Z,9.418159
2023-03-16T02:42:15.994Z,9.418184
2023-03-16T02:43:15.975Z,9.418236
2023-03-16T02:44:15.997Z,9.418144
2023-03-16T02:45:15.954Z,9.418202
2023-03-16T02:46:16.030Z,9.418269
2023-03-16T02:47:15.991Z,9.418227
2023-03-16T02:48:16.012Z,9.418275
2023-03-16T02:49:16.000Z,9.418275
2023-03-16T02:50:16.004Z,9.418203
2023-03-16T02:51:15.931Z,9.418220
2023-03-16T02:52:15.918Z,9.418305
2023-03-16T02:53:15.907Z,9.418248
2023-03-16T02:54:15.925Z,9.418322
2023-03-16T02:55:15.914Z,9.418221
2023-03-16T02:56:15.889Z,9.418292
2023-03-16T02:57:15.888Z,9.418410
2023-03-16T02:58:15.880Z,9.418270
2023-03-16T02:59:15.908Z,9.418202
2023-03-16T03:00:15.876Z,9.418284
2023-03-16T03:01:15.853Z,9.418263
2023-03-16T03:02:15.850Z,9.418300
2023-03-16T03:03:15.925Z,9.418363
2023-03-16T03:04:15.894Z,9.418116
2023-03-16T03:05:15.848Z,9.418187
2023-03-16T03:06:15.823Z,9.418212
2023-03-16T03:07:15.812Z,9.418247
2023-03-16T03:08:15.809Z,9.418249
2023-03-16T03:09:15.823Z,9.418377
2023-03-16T03:10:15.801Z,9.418313
2023-03-16T03:11:15.822Z,9.418385
2023-03-16T03:12:15.785Z,9.418232
2023-03-16T03:13:15.781Z,9.418346
2023-03-16T03:14:15.833Z,9.418291
2023-03-16T03:15:15.773Z,9.418320
2023-03-16T03:16:15.827Z,9.418251
2023-03-16T03:17:15.767Z,9.418337
2023-03-16T03:18:15.753Z,9.418311
2023-03-16T03:19:15.740Z,9.418245
2023-03-16T03:20:15.737Z,9.418217
2023-03-16T03:21:15.726Z,9.418171
2023-03-16T03:22:15.735Z,9.418176
2023-03-16T03:23:15.718Z,9.418275
2023-03-16T03:24:15.718Z,9.418233
2023-03-16T03:25:15.723Z,9.418232
2023-03-16T03:26:15.712Z,9.418281
2023-03-16T03:27:15.707Z,9.418287
2023-03-16T03:28:15.694Z,9.418246
2023-03-16T03:29:15.681Z,9.418273
2023-03-16T03:30:15.676Z,9.418267
2023-03-16T03:31:15.692Z,9.418232
2023-03-16T03:32:15.688Z,9.418252
2023-03-16T03:33:15.643Z,9.418227
2023-03-16T03:34:15.655Z,9.418208
2023-03-16T03:35:15.647Z,9.418211
2023-03-16T03:36:15.655Z,9.418204
2023-03-16T03:37:15.637Z,9.418192
2023-03-16T03:38:15.619Z,9.418256
2023-03-16T03:39:15.614Z,9.418242
2023-03-16T03:40:15.624Z,9.418192
2023-03-16T03:41:15.605Z,9.418223
2023-03-16T03:42:15.613Z,9.418260
2023-03-16T03:43:15.596Z,9.418240
2023-03-16T03:44:15.587Z,9.418236
2023-03-16T03:45:15.596Z,9.418316
2023-03-16T03:46:15.708Z,9.418250
2023-03-16T03:47:15.561Z,9.418315
2023-03-16T03:48:15.558Z,9.418299
2023-03-16T03:49:15.539Z,9.418292
2023-03-16T03:50:15.573Z,9.418220
2023-03-16T03:51:15.554Z,9.418309
2023-03-16T03:52:15.541Z,9.418283
2023-03-16T03:53:15.518Z,9.418292
2023-03-16T03:54:15.523Z,9.418363
2023-03-16T03:55:15.507Z,9.418398
2023-03-16T03:56:15.514Z,9.418299
2023-03-16T03:57:15.520Z,9.418365
2023-03-16T03:58:15.495Z,9.418346
2023-03-16T03:59:15.492Z,9.418315
2023-03-16T04:00:15.477Z,9.418290
2023-03-16T04:01:15.486Z,9.418245
2023-03-16T04:02:15.618Z,9.418186
2023-03-16T04:03:15.581Z,9.418242
2023-03-16T04:04:15.475Z,9.418303
2023-03-16T04:05:15.446Z,9.418286
2023-03-16T04:06:15.433Z,9.418286
2023-03-16T04:07:15.435Z,9.418316
2023-03-16T04:08:15.419Z,9.418243
2023-03-16T04:09:15.434Z,9.418374
2023-03-16T04:10:15.410Z,9.418329
2023-03-16T04:11:15.407Z,9.418291
2023-03-16T04:12:15.392Z,9.418241
2023-03-16T04:13:15.391Z,9.418282
2023-03-16T04:14:15.387Z,9.418263
2023-03-16T04:15:15.379Z,9.418234
2023-03-16T04:16:15.386Z,9.418253
2023-03-16T04:17:15.386Z,9.418275
2023-03-16T04:18:15.359Z,9.418207
2023-03-16T04:19:15.357Z,9.418266
2023-03-16T04:20:15.341Z,9.418268
2023-03-16T04:21:15.329Z,9.418257
2023-03-16T04:22:15.339Z,9.418286
2023-03-16T04:23:15.319Z,9.418292
2023-03-16T04:24:15.312Z,9.418301
2023-03-16T04:25:15.306Z,9.418260
2023-03-16T04:26:15.300Z,9.418350
2023-03-16T04:27:15.304Z,9.418396
2023-03-16T04:28:15.282Z,9.418386
2023-03-16T04:29:15.278Z,9.418327
2023-03-16T04:30:15.381Z,9.418274
2023-03-16T04:31:15.462Z,9.418227
2023-03-16T04:32:15.547Z,9.418278
2023-03-16T04:33:15.256Z,9.418287
2023-03-16T04:34:15.284Z,9.418264
2023-03-16T04:35:15.250Z,9.418330
2023-03-16T04:36:15.286Z,9.418347
2023-03-16T04:37:15.226Z,9.418388
2023-03-16T04:38:15.238Z,9.418452
2023-03-16T04:39:15.219Z,9.418342
2023-03-16T04:40:15.206Z,9.418313
2023-03-16T04:41:15.199Z,9.418276
2023-03-16T04:42:15.217Z,9.418280
2023-03-16T04:43:15.196Z,9.418324
2023-03-16T04:44:15.193Z,9.418330
2023-03-16T04:45:15.175Z,9.418377
2023-03-16T04:46:15.231Z,9.418324
2023-03-16T04:47:15.172Z,9.418290
2023-03-16T04:48:15.155Z,9.418286
2023-03-16T04:49:15.149Z,9.418341
2023-03-16T04:50:15.140Z,9.418300
2023-03-16T04:51:15.171Z,9.418285
2023-03-16T04:52:15.158Z,9.418301
2023-03-16T04:53:15.125Z,9.418295
2023-03-16T04:54:15.135Z,9.418267
2023-03-16T04:55:15.112Z,9.418256
2023-03-16T04:56:15.104Z,9.418331
2023-03-16T04:57:15.096Z,9.418256
2023-03-16T04:58:15.087Z,9.418251
2023-03-16T04:59:15.126Z,9.418285
2023-03-16T05:00:15.076Z,9.418282
2023-03-16T05:01:15.112Z,9.418343
2023-03-16T05:02:15.069Z,9.418321
2023-03-16T05:03:15.058Z,9.418282
2023-03-16T05:04:19.269Z,9.418189
2023-03-16T05:05:16.131Z,9.418215
2023-03-16T05:06:15.028Z,9.418261
2023-03-16T05:07:15.032Z,9.418319
2023-03-16T05:08:15.022Z,9.418261
2023-03-16T05:09:15.019Z,9.418165
2023-03-16T05:10:15.014Z,9.418144
2023-03-16T05:11:14.992Z,9.418239
2023-03-16T05:12:15.000Z,9.418261
2023-03-16T05:13:14.998Z,9.418289
2023-03-16T05:14:14.971Z,9.418262
2023-03-16T05:15:15.002Z,9.418259
2023-03-16T05:16:15.170Z,9.418223
2023-03-16T05:17:14.985Z,9.418252
2023-03-16T05:18:14.952Z,9.418281
2023-03-16T05:19:14.942Z,9.418298
2023-03-16T05:20:26.137Z,9.418272
2023-03-16T05:21:16.957Z,9.418398
2023-03-16T05:22:14.927Z,9.418344
2023-03-16T05:23:14.925Z,9.418359
2023-03-16T05:24:14.914Z,9.418310
2023-03-16T05:25:14.949Z,9.418336
2023-03-16T05:26:14.917Z,9.418375
2023-03-16T05:27:14.897Z,9.418516
2023-03-16T05:28:14.919Z,9.418475
2023-03-16T05:29:14.876Z,9.418428
2023-03-16T05:30:14.886Z,9.418312
2023-03-16T05:31:14.928Z,9.418254
2023-03-16T05:32:14.866Z,9.418220
2023-03-16T05:33:14.869Z,9.418064
2023-03-16T05:34:14.844Z,9.418221
2023-03-16T05:35:14.838Z,9.418163
2023-03-16T05:36:14.881Z,9.418066
2023-03-16T05:37:14.818Z,9.418147
2023-03-16T05:38:14.821Z,9.418124
2023-03-16T05:39:14.836Z,9.418176
2023-03-16T05:40:14.806Z,9.418226
2023-03-16T05:41:14.826Z,9.418244
2023-03-16T05:42:14.803Z,9.418262
2023-03-16T05:43:14.785Z,9.418199
2023-03-16T05:44:14.797Z,9.418180
2023-03-16T05:45:14.789Z,9.418205
2023-03-16T05:46:14.793Z,9.418141
2023-03-16T05:47:14.766Z,9.418139
2023-03-16T05:48:14.758Z,9.418224
2023-03-16T05:49:14.754Z,9.418262
2023-03-16T05:50:14.757Z,9.418366
2023-03-16T05:51:14.731Z,9.418358
2023-03-16T05:52:14.740Z,9.418264
2023-03-16T05:53:14.727Z,9.418197
2023-03-16T05:54:14.718Z,9.418203
2023-03-16T05:55:14.749Z,9.418212
2023-03-16T05:56:14.719Z,9.418147
2023-03-16T05:57:14.695Z,9.418033
2023-03-16T05:58:14.695Z,9.417908
2023-03-16T05:59:14.687Z,9.418118
2023-03-16T06:00:14.739Z,9.418117
2023-03-16T06:01:14.685Z,9.418092
2023-03-16T06:02:14.671Z,9.418113
2023-03-16T06:03:14.687Z,9.418090
2023-03-16T06:04:14.709Z,9.418186
2023-03-16T06:05:14.656Z,9.418118
2023-03-16T06:06:14.639Z,9.418047
2023-03-16T06:07:14.645Z,9.418021
2023-03-16T06:08:14.627Z,9.417941
2023-03-16T06:09:14.629Z,9.418057
2023-03-16T06:10:14.621Z,9.418180
2023-03-16T06:11:14.627Z,9.418284
2023-03-16T06:12:14.614Z,9.418310
2023-03-16T06:13:14.598Z,9.418419
2023-03-16T06:14:14.598Z,9.418373
2023-03-16T06:15:14.578Z,9.418259
2023-03-16T06:16:14.688Z,9.418161
2023-03-16T06:17:14.590Z,9.418209
2023-03-16T06:18:14.575Z,9.418218
2023-03-16T06:19:14.555Z,9.418387
2023-03-16T06:20:14.573Z,9.418414
2023-03-16T06:21:14.540Z,9.418407
2023-03-16T06:22:14.599Z,9.418401
2023-03-16T06:23:14.559Z,9.418331
2023-03-16T06:24:14.548Z,9.418305
2023-03-16T06:25:14.530Z,9.418342
2023-03-16T06:26:14.512Z,9.418461
2023-03-16T06:27:14.501Z,9.418500
2023-03-16T06:28:14.547Z,9.418522
2023-03-16T06:29:14.494Z,9.418401
2023-03-16T06:30:14.495Z,9.418388
2023-03-16T06:31:14.505Z,9.418303
2023-03-16T06:32:14.463Z,9.418345
2023-03-16T06:33:14.460Z,9.418450
2023-03-16T06:34:14.462Z,9.418594
2023-03-16T06:35:14.474Z,9.418344
2023-03-16T06:36:14.495Z,9.418311
2023-03-16T06:37:14.436Z,9.418333
2023-03-16T06:38:14.433Z,9.418305
2023-03-16T06:39:14.417Z,9.418191
2023-03-16T06:40:14.435Z,9.418346
2023-03-16T06:41:14.425Z,9.418345
2023-03-16T06:42:14.400Z,9.418331
2023-03-16T06:43:14.401Z,9.418316
2023-03-16T06:44:14.392Z,9.418283
2023-03-16T06:45:14.377Z,9.418211
2023-03-16T06:46:14.488Z,9.418256
2023-03-16T06:47:14.368Z,9.418295
2023-03-16T06:48:14.369Z,9.418347
2023-03-16T06:49:14.357Z,9.418277
2023-03-16T06:50:14.357Z,9.418217
2023-03-16T06:51:16.681Z,9.418232
2023-03-16T06:52:14.354Z,9.418245
2023-03-16T06:53:14.325Z,9.418226
2023-03-16T06:54:14.341Z,9.418209
2023-03-16T06:55:14.313Z,9.418224
2023-03-16T06:56:14.317Z,9.418222
2023-03-16T06:57:14.302Z,9.418277
2023-03-16T06:58:14.292Z,9.418294
2023-03-16T06:59:14.300Z,9.418316
2023-03-16T07:00:14.280Z,9.418359
2023-03-16T07:01:14.310Z,9.418323
2023-03-16T07:02:14.282Z,9.418296
2023-03-16T07:03:14.263Z,9.418288
2023-03-16T07:04:14.323Z,9.418287
2023-03-16T07:05:14.309Z,9.418323
2023-03-16T07:06:14.239Z,9.418295
2023-03-16T07:07:14.243Z,9.418333
2023-03-16T07:08:14.229Z,9.418325
2023-03-16T07:09:14.236Z,9.418305
2023-03-16T07:10:14.221Z,9.418251
2023-03-16T07:11:14.201Z,9.418318
2023-03-16T07:12:14.243Z,9.418325
2023-03-16T07:13:14.191Z,9.418396
2023-03-16T07:14:14.169Z,9.418304
2023-03-16T07:15:14.180Z,9.418301
2023-03-16T07:16:14.287Z,9.418222
2023-03-16T07:17:14.163Z,9.418222
2023-03-16T07:18:14.148Z,9.418179
2023-03-16T07:19:14.150Z,9.418238
2023-03-16T07:20:14.152Z,9.418222
2023-03-16T07:21:14.132Z,9.418230
2023-03-16T07:22:15.125Z,9.418184
2023-03-16T07:23:14.126Z,9.418195
2023-03-16T07:24:14.124Z,9.418216
2023-03-16T07:25:14.117Z,9.418206
2023-03-16T07:26:14.146Z,9.418200
2023-03-16T07:27:14.130Z,9.418205
2023-03-16T07:28:14.141Z,9.418233
2023-03-16T07:29:14.114Z,9.418220
2023-03-16T07:30:14.119Z,9.418210
2023-03-16T07:31:14.096Z,9.418150
2023-03-16T07:32:14.072Z,9.418175
2023-03-16T07:33:14.056Z,9.418205
2023-03-16T07:34:14.043Z,9.418252
2023-03-16T07:35:14.058Z,9.418293
2023-03-16T07:36:14.096Z,9.418292
2023-03-16T07:37:14.041Z,9.418319
2023-03-16T07:38:14.063Z,9.418315
2023-03-16T07:39:14.015Z,9.418234
2023-03-16T07:40:14.015Z,9.418252
2023-03-16T07:41:14.067Z,9.418240
2023-03-16T07:42:14.015Z,9.418202
2023-03-16T07:43:13.989Z,9.418247
2023-03-16T07:44:13.983Z,9.418141
2023-03-16T07:45:14.972Z,9.418087
2023-03-16T07:46:14.134Z,9.418109
2023-03-16T07:47:13.959Z,9.418229
2023-03-16T07:48:13.952Z,9.418349
2023-03-16T07:49:13.982Z,9.418223
2023-03-16T07:50:13.942Z,9.418179
2023-03-16T07:51:13.962Z,9.418130
2023-03-16T07:52:13.934Z,9.418092
2023-03-16T07:53:13.915Z,9.418259
2023-03-16T07:54:13.926Z,9.418157
2023-03-16T07:55:13.910Z,9.418352
2023-03-16T07:56:13.904Z,9.418329
2023-03-16T07:57:13.900Z,9.418223
2023-03-16T07:58:13.900Z,9.418243
2023-03-16T07:59:13.899Z,9.418167
2023-03-16T08:00:13.883Z,9.418413
2023-03-16T08:01:13.874Z,9.418158
2023-03-16T08:02:13.933Z,9.418177
2023-03-16T08:03:13.959Z,9.418345
2023-03-16T08:04:13.865Z,9.418285
2023-03-16T08:05:13.868Z,9.418242
2023-03-16T08:06:13.834Z,9.418186
2023-03-16T08:07:13.834Z,9.418205
2023-03-16T08:08:13.854Z,9.418155
2023-03-16T08:09:13.823Z,9.418106
2023-03-16T08:10:13.811Z,9.418203
2023-03-16T08:11:13.802Z,9.418218
2023-03-16T08:12:13.788Z,9.418228
2023-03-16T08:13:14.807Z,9.418213
2023-03-16T08:14:13.786Z,9.418226
2023-03-16T08:15:13.780Z,9.418203
2023-03-16T08:16:13.893Z,9.418222
2023-03-16T08:17:13.768Z,9.418224
2023-03-16T08:18:13.782Z,9.418232
2023-03-16T08:19:13.794Z,9.418227
2023-03-16T08:20:13.753Z,9.418215
2023-03-16T08:21:13.737Z,9.418184
2023-03-16T08:22:14.742Z,9.418190
2023-03-16T08:23:13.730Z,9.418202
2023-03-16T08:24:13.759Z,9.418198
2023-03-16T08:25:13.715Z,9.418198
2023-03-16T08:26:13.720Z,9.418107
2023-03-16T08:27:13.704Z,9.418163
2023-03-16T08:28:13.710Z,9.418217
2023-03-16T08:29:13.765Z,9.418375
2023-03-16T08:30:13.745Z,9.418241
2023-03-16T08:31:13.706Z,9.418143
2023-03-16T08:32:13.672Z,9.418021
2023-03-16T08:33:13.675Z,9.418044
2023-03-16T08:34:13.647Z,9.418106
2023-03-16T08:35:13.668Z,9.418245
2023-03-16T08:36:13.749Z,9.418203
2023-03-16T08:37:13.640Z,9.418237
2023-03-16T08:38:13.627Z,9.418153
2023-03-16T08:39:13.623Z,9.418099
2023-03-16T08:40:13.622Z,9.418172
2023-03-16T08:41:13.607Z,9.418350
2023-03-16T08:42:13.595Z,9.418200
2023-03-16T08:43:13.586Z,9.418144
2023-03-16T08:44:13.604Z,9.418299
2023-03-16T08:45:14.339Z,9.418210
2023-03-16T08:46:14.621Z,9.418283
2023-03-16T08:47:13.571Z,9.418258
2023-03-16T08:48:13.550Z,9.418111
2023-03-16T08:49:13.664Z,9.418273
2023-03-16T08:50:13.552Z,9.418264
2023-03-16T08:51:13.541Z,9.418208
2023-03-16T08:52:13.524Z,9.418194
2023-03-16T08:53:13.529Z,9.418194
2023-03-16T08:54:13.512Z,9.418036
2023-03-16T08:55:13.517Z,9.418272
2023-03-16T08:56:13.497Z,9.418386
2023-03-16T08:57:13.488Z,9.418321
2023-03-16T08:58:13.497Z,9.418316
2023-03-16T08:59:23.688Z,9.418394
2023-03-16T09:00:15.477Z,9.418312
2023-03-16T09:01:13.455Z,9.418381
2023-03-16T09:02:13.503Z,9.418365
2023-03-16T09:03:13.448Z,9.418346
2023-03-16T09:04:13.520Z,9.418435
2023-03-16T09:05:13.499Z,9.418411
2023-03-16T09:06:13.429Z,9.418336
2023-03-16T09:07:13.436Z,9.418400
2023-03-16T09:08:13.420Z,9.418281
2023-03-16T09:09:13.400Z,9.418233
2023-03-16T09:10:13.396Z,9.418241
2023-03-16T09:11:13.399Z,9.418328
2023-03-16T09:12:13.399Z,9.418381
2023-03-16T09:13:13.386Z,9.418494
2023-03-16T09:14:13.369Z,9.418354
2023-03-16T09:15:13.374Z,9.418264
2023-03-16T09:16:13.370Z,9.418131
2023-03-16T09:17:13.354Z,9.418525
2023-03-16T09:18:13.351Z,9.418278
2023-03-16T09:19:13.349Z,9.418447
2023-03-16T09:20:26.855Z,9.418473
2023-03-16T09:21:15.343Z,9.418447
2023-03-16T09:22:13.307Z,9.418367
2023-03-16T09:23:13.321Z,9.418147
2023-03-16T09:24:13.293Z,9.418217
2023-03-16T09:25:13.290Z,9.418272
2023-03-16T09:26:13.285Z,9.418330
2023-03-16T09:27:13.380Z,9.418338
2023-03-16T09:28:13.290Z,9.418260
2023-03-16T09:29:13.273Z,9.418247
2023-03-16T09:30:13.255Z,9.418230
2023-03-16T09:31:13.260Z,9.418302
2023-03-16T09:32:13.243Z,9.418384
2023-03-16T09:33:13.262Z,9.418292
2023-03-16T09:34:13.233Z,9.418269
2023-03-16T09:35:13.218Z,9.418268
2023-03-16T09:36:13.245Z,9.418182
2023-03-16T09:37:13.202Z,9.418249
2023-03-16T09:38:13.240Z,9.418270
2023-03-16T09:39:13.205Z,9.418305
2023-03-16T09:40:13.196Z,9.418320
2023-03-16T09:41:13.182Z,9.418375
2023-03-16T09:42:13.175Z,9.418260
2023-03-16T09:43:13.163Z,9.418240
2023-03-16T09:44:13.204Z,9.418194
2023-03-16T09:45:13.169Z,9.418203
2023-03-16T09:46:13.208Z,9.418300
2023-03-16T09:47:13.146Z,9.418295
2023-03-16T09:48:13.127Z,9.418304
2023-03-16T09:49:13.127Z,9.418266
2023-03-16T09:50:13.278Z,9.418312
2023-03-16T09:51:13.131Z,9.418244
2023-03-16T09:52:13.245Z,9.418241
2023-03-16T09:53:13.095Z,9.418259
2023-03-16T09:54:13.096Z,9.418249
2023-03-16T09:55:13.095Z,9.418236
2023-03-16T09:56:13.084Z,9.418220
2023-03-16T09:57:13.079Z,9.418242
2023-03-16T09:58:13.075Z,9.418283
2023-03-16T09:59:13.060Z,9.418260
2023-03-16T10:00:13.074Z,9.418344
2023-03-16T10:01:13.124Z,9.418264
2023-03-16T10:02:13.035Z,9.418273
2023-03-16T10:03:13.036Z,9.418235
2023-03-16T10:04:13.019Z,9.418348
2023-03-16T10:05:13.027Z,9.418300
2023-03-16T10:06:13.044Z,9.418268
2023-03-16T10:07:12.994Z,9.418304
2023-03-16T10:08:13.024Z,9.418441
2023-03-16T10:09:12.994Z,9.418462
2023-03-16T10:10:12.996Z,9.418405
2023-03-16T10:11:12.979Z,9.418295
2023-03-16T10:12:12.971Z,9.418400
2023-03-16T10:13:12.968Z,9.418370
2023-03-16T10:14:12.981Z,9.418361
2023-03-16T10:15:13.028Z,9.418251
2023-03-16T10:16:12.991Z,9.418214
2023-03-16T10:17:12.929Z,9.418260
2023-03-16T10:18:13.554Z,9.418226
2023-03-16T10:19:13.931Z,9.418293
2023-03-16T10:20:12.919Z,9.418261
2023-03-16T10:21:12.915Z,9.418267
2023-03-16T10:22:12.901Z,9.418215
2023-03-16T10:23:12.885Z,9.418331
2023-03-16T10:24:12.878Z,9.418371
2023-03-16T10:25:12.963Z,9.418267
2023-03-16T10:26:12.883Z,9.418254
2023-03-16T10:27:13.858Z,9.418270
2023-03-16T10:28:12.847Z,9.418197
2023-03-16T10:29:12.862Z,9.418236
2023-03-16T10:30:12.849Z,9.418219
2023-03-16T10:31:12.902Z,9.418343
2023-03-16T10:32:12.818Z,9.418266
2023-03-16T10:33:12.834Z,9.418284
2023-03-16T10:34:12.813Z,9.418253
2023-03-16T10:35:12.808Z,9.418256
2023-03-16T10:36:12.853Z,9.418368
2023-03-16T10:37:12.789Z,9.418411
2023-03-16T10:38:13.528Z,9.418339
2023-03-16T10:39:12.805Z,9.418331
2023-03-16T10:40:12.790Z,9.418205
2023-03-16T10:41:12.800Z,9.418176
2023-03-16T10:42:12.755Z,9.418385
2023-03-16T10:43:12.753Z,9.418491
2023-03-16T10:44:12.741Z,9.418355
2023-03-16T10:45:12.742Z,9.418365
2023-03-16T10:46:14.842Z,9.418421
2023-03-16T10:47:13.799Z,9.418210
2023-03-16T10:48:12.733Z,9.418329
2023-03-16T10:49:12.708Z,9.418336
2023-03-16T10:50:12.708Z,9.418175
2023-03-16T10:51:12.694Z,9.418126
2023-03-16T10:52:12.714Z,9.418244
2023-03-16T10:53:12.682Z,9.418056
2023-03-16T10:54:12.683Z,9.418365
2023-03-16T10:55:12.701Z,9.418294
2023-03-16T10:56:12.671Z,9.418097
2023-03-16T10:57:12.660Z,9.418167
2023-03-16T10:58:12.672Z,9.418337
2023-03-16T10:59:12.643Z,9.418130
2023-03-16T11:00:12.654Z,9.418108
2023-03-16T11:01:12.671Z,9.418222
2023-03-16T11:02:12.632Z,9.418248
2023-03-16T11:03:12.636Z,9.418213
2023-03-16T11:04:12.715Z,9.418182
2023-03-16T11:05:12.606Z,9.418255
2023-03-16T11:06:12.602Z,9.418118
2023-03-16T11:07:12.594Z,9.418233
2023-03-16T11:08:12.598Z,9.418254
2023-03-16T11:09:12.588Z,9.418217
2023-03-16T11:10:12.584Z,9.418077
2023-03-16T11:11:12.569Z,9.418223
2023-03-16T11:12:12.563Z,9.418181
2023-03-16T11:13:12.580Z,9.418047
2023-03-16T11:14:12.551Z,9.417903
2023-03-16T11:15:23.684Z,9.417953
2023-03-16T11:16:14.611Z,9.418004
2023-03-16T11:17:12.555Z,9.418052
2023-03-16T11:18:12.521Z,9.417992
2023-03-16T11:19:12.506Z,9.417900
2023-03-16T11:20:12.537Z,9.418045
2023-03-16T11:21:12.490Z,9.418185
2023-03-16T11:22:12.490Z,9.418077
2023-03-16T11:23:12.483Z,9.418200
2023-03-16T11:24:12.476Z,9.418093
2023-03-16T11:25:12.467Z,9.418096
2023-03-16T11:26:12.470Z,9.418204
2023-03-16T11:27:12.458Z,9.418200
2023-03-16T11:28:12.448Z,9.418056
2023-03-16T11:29:12.438Z,9.418217
2023-03-16T11:30:12.440Z,9.418195
2023-03-16T11:31:12.465Z,9.417925
2023-03-16T11:32:14.146Z,9.418067
2023-03-16T11:33:12.437Z,9.418133
2023-03-16T11:34:12.408Z,9.417931
2023-03-16T11:35:12.404Z,9.418329
2023-03-16T11:36:12.510Z,9.418055
2023-03-16T11:37:12.393Z,9.417732
2023-03-16T11:38:12.389Z,9.417664
2023-03-16T11:39:12.388Z,9.418243
2023-03-16T11:40:12.364Z,9.418220
2023-03-16T11:41:12.349Z,9.418316
2023-03-16T11:42:12.372Z,9.418458
2023-03-16T11:43:12.355Z,9.418665
2023-03-16T11:44:12.356Z,9.418456